首页
METAR-TAF:

METAR-TAF

机场 :

大加那利岛, 西班牙

大加那利机场

纬度: 27-56N, 经度: 015-23W, 海拔: 23米

当前天气观测

该预报发布于24分钟前的06:30 UTC
风速15节,风向
温度 18°C
湿度 68%
气压 1020 hPa
能见度10公里或以上
散云层高于3500英尺

METAR: GCLP 250630Z 35015KT 9999 SCT035 18/12 Q1020 NOSIG

时间: 07:54 (06:54 UTC)

预报

该预报发布于4小时和54分钟前的02:00 UTC
预报有效从25日的 03点(UTC)到 26日的 03点(UTC)
风速20节,风向
能见度10公里或以上
散云层高于2500英尺
短暂存在
从 25日的 08点(UTC)到 25日的 20点(UTC)
风速24节,风向,有时为34节阵风

TAF: GCLP 250200Z 2503/2603 35020KT 9999 SCT025 TX23/2514Z TN17/2505Z TEMPO 2508/2520 01024G34KT

超过4000个机场的气象观测和天气预报(METAR&TAF报告)。

可查询的气象台以黄色和红色小点在地图上表示。

将鼠标移到小点上方,可查看气象台名称。

然后点击查看天气观测和预报。

如需切换地图:点击带黑十字的绿色按钮放大地图;点击带横线的绿色按钮缩小地图;或者点击绿色箭头查看邻近地区的地图。


METAR-TAF: